createdAt,value
2023-02-15T00:00:40.168Z,-5.37
2023-02-15T00:03:09.699Z,-5.34
2023-02-15T00:05:39.311Z,-5.31
2023-02-15T00:08:10.294Z,-5.27
2023-02-15T00:10:39.854Z,-5.32
2023-02-15T00:13:09.496Z,-5.35
2023-02-15T00:15:38.998Z,-5.35
2023-02-15T00:18:08.665Z,-5.31
2023-02-15T00:20:38.647Z,-5.41
2023-02-15T00:23:09.637Z,-5.47
2023-02-15T00:25:39.103Z,-5.47
2023-02-15T00:28:08.785Z,-5.43
2023-02-15T00:30:38.381Z,-5.49
2023-02-15T00:33:08.011Z,-5.50
2023-02-15T00:35:38.028Z,-5.56
2023-02-15T00:38:08.981Z,-5.57
2023-02-15T00:40:38.566Z,-5.62
2023-02-15T00:43:08.110Z,-5.57
2023-02-15T00:45:37.710Z,-5.57
2023-02-15T00:50:37.521Z,-5.59
2023-02-15T00:53:06.987Z,-5.69
2023-02-15T00:55:36.707Z,-5.72
2023-02-15T00:58:06.310Z,-5.73
2023-02-15T01:00:36.322Z,-5.72
2023-02-15T01:03:06.668Z,-5.73
2023-02-15T01:05:37.550Z,-5.72
2023-02-15T01:08:07.449Z,-5.71
2023-02-15T01:10:38.189Z,-5.66
2023-02-15T01:13:08.196Z,-5.65
2023-02-15T01:15:38.682Z,-5.65
2023-02-15T01:18:09.446Z,-5.63
2023-02-15T01:20:43.375Z,-5.60
2023-02-15T01:23:13.031Z,-5.55
2023-02-15T01:25:42.772Z,-5.55
2023-02-15T01:28:12.349Z,-5.58
2023-02-15T01:30:41.955Z,-5.62
2023-02-15T01:33:19.159Z,-5.58
2023-02-15T01:35:50.694Z,-5.58
2023-02-15T01:38:20.174Z,-5.60
2023-02-15T01:40:50.179Z,-5.57
2023-02-15T01:43:19.589Z,-5.62
2023-02-15T01:45:51.332Z,-5.66
2023-02-15T01:48:26.488Z,-5.68
2023-02-15T01:51:02.942Z,-5.69
2023-02-15T01:53:38.057Z,-5.71
2023-02-15T01:56:13.008Z,-5.78
2023-02-15T01:58:42.526Z,-5.76
2023-02-15T02:01:12.780Z,-5.77
2023-02-15T02:03:52.675Z,-5.80
2023-02-15T02:06:26.287Z,-5.84
2023-02-15T02:08:57.115Z,-5.87
2023-02-15T02:11:26.936Z,-5.88
2023-02-15T02:13:58.648Z,-5.78
2023-02-15T02:16:38.747Z,-5.75
2023-02-15T02:20:11.647Z,-5.74
2023-02-15T02:23:27.547Z,-5.77
2023-02-15T02:26:57.146Z,-5.77
2023-02-15T02:30:23.893Z,-5.77
2023-02-15T02:33:31.049Z,-5.87
2023-02-15T02:36:22.373Z,-5.76
2023-02-15T02:39:12.313Z,-5.77
2023-02-15T02:41:54.785Z,-5.82
2023-02-15T02:44:29.510Z,-5.86
2023-02-15T02:47:05.039Z,-5.88
2023-02-15T02:49:39.190Z,-5.87
2023-02-15T02:52:38.622Z,-5.92
2023-02-15T02:55:14.168Z,-5.93
2023-02-15T02:57:54.287Z,-5.93
2023-02-15T03:00:26.572Z,-5.93
2023-02-15T03:03:09.349Z,-6.00
2023-02-15T03:05:46.175Z,-6.04
2023-02-15T03:08:23.071Z,-6.03
2023-02-15T03:11:03.268Z,-5.96
2023-02-15T03:13:33.400Z,-5.99
2023-02-15T03:16:23.680Z,-5.96
2023-02-15T03:18:59.483Z,-5.95
2023-02-15T03:21:37.543Z,-6.03
2023-02-15T03:24:16.301Z,-6.02
2023-02-15T03:26:49.714Z,-6.03
2023-02-15T03:29:22.160Z,-6.00
2023-02-15T03:31:59.416Z,-6.13
2023-02-15T03:34:29.834Z,-6.19
2023-02-15T03:37:11.566Z,-6.18
2023-02-15T03:39:50.294Z,-6.14
2023-02-15T03:42:27.785Z,-6.20
2023-02-15T03:45:05.120Z,-6.23
2023-02-15T03:47:39.431Z,-6.20
2023-02-15T03:51:41.974Z,-6.18
2023-02-15T03:54:14.933Z,-6.26
2023-02-15T03:57:06.598Z,-6.25
2023-02-15T03:59:53.158Z,-6.26
2023-02-15T04:02:27.909Z,-6.34
2023-02-15T04:04:57.373Z,-6.32
2023-02-15T04:07:28.274Z,-6.30
2023-02-15T04:10:14.975Z,-6.28
2023-02-15T04:12:44.539Z,-6.25
2023-02-15T04:15:33.474Z,-6.35
2023-02-15T04:18:06.665Z,-6.45
2023-02-15T04:20:53.450Z,-6.51
2023-02-15T04:23:41.764Z,-6.59
2023-02-15T04:26:11.227Z,-6.57
2023-02-15T04:31:24.238Z,-6.59
2023-02-15T04:33:53.890Z,-6.60
2023-02-15T04:36:23.608Z,-6.58
2023-02-15T04:38:54.609Z,-6.58
2023-02-15T04:41:24.013Z,-6.58
2023-02-15T04:43:53.613Z,-6.61
2023-02-15T04:46:23.143Z,-6.62
2023-02-15T04:48:54.520Z,-6.60
2023-02-15T04:51:24.129Z,-6.64
2023-02-15T04:53:55.425Z,-6.63
2023-02-15T04:56:25.309Z,-6.66
2023-02-15T04:58:54.845Z,-6.68
2023-02-15T05:01:24.448Z,-6.64
2023-02-15T05:03:54.096Z,-6.66
2023-02-15T05:06:23.752Z,-6.72
2023-02-15T05:08:54.867Z,-6.77
2023-02-15T05:11:24.267Z,-6.80
2023-02-15T05:13:54.005Z,-6.79
2023-02-15T05:16:23.349Z,-6.78
2023-02-15T05:18:52.905Z,-6.72
2023-02-15T05:21:22.643Z,-6.71
2023-02-15T05:23:53.753Z,-6.74
2023-02-15T05:26:42.750Z,-6.69
2023-02-15T05:29:13.091Z,-6.65
2023-02-15T05:31:43.334Z,-6.67
2023-02-15T05:34:13.009Z,-6.66
2023-02-15T05:36:42.549Z,-6.66
2023-02-15T05:39:13.506Z,-6.54
2023-02-15T05:41:42.988Z,-6.47
2023-02-15T05:44:12.642Z,-6.43
2023-02-15T05:46:42.162Z,-6.42
2023-02-15T05:49:11.612Z,-6.39
2023-02-15T05:51:41.213Z,-6.33
2023-02-15T05:54:12.327Z,-6.32
2023-02-15T05:56:43.181Z,-6.35
2023-02-15T05:59:13.900Z,-6.30
2023-02-15T06:01:43.572Z,-6.13
2023-02-15T06:04:13.215Z,-5.93
2023-02-15T06:06:42.702Z,-5.69
2023-02-15T06:09:14.251Z,-5.46
2023-02-15T06:11:45.292Z,-5.27
2023-02-15T06:14:14.733Z,-5.08
2023-02-15T06:16:44.193Z,-4.89
2023-02-15T06:19:13.971Z,-4.69
2023-02-15T06:21:43.462Z,-4.57
2023-02-15T06:24:14.714Z,-4.44
2023-02-15T06:26:44.479Z,-4.31
2023-02-15T06:29:14.095Z,-4.17
2023-02-15T06:31:44.212Z,-4.04
2023-02-15T06:34:14.088Z,-3.88
2023-02-15T06:36:44.556Z,-3.68
2023-02-15T06:39:15.712Z,-3.55
2023-02-15T06:41:45.442Z,-3.43
2023-02-15T06:44:14.972Z,-3.33
2023-02-15T06:46:44.777Z,-3.17
2023-02-15T06:51:37.750Z,-2.86
2023-02-15T06:54:07.579Z,-2.68
2023-02-15T06:56:37.076Z,-2.55
2023-02-15T06:59:06.691Z,-2.42
2023-02-15T07:01:38.312Z,-2.20
2023-02-15T07:04:08.006Z,-1.79
2023-02-15T07:06:39.142Z,-1.46
2023-02-15T07:09:08.756Z,-1.11
2023-02-15T07:11:54.848Z,-0.94
2023-02-15T07:14:24.592Z,-0.74
2023-02-15T07:16:54.134Z,-0.56
2023-02-15T07:19:23.669Z,-0.34
2023-02-15T07:21:54.570Z,-0.12
2023-02-15T07:24:24.215Z,-0.03
2023-02-15T07:26:53.689Z,0.10
2023-02-15T07:29:24.424Z,0.24
2023-02-15T07:31:54.392Z,0.35
2023-02-15T07:34:24.363Z,0.44
2023-02-15T07:36:55.846Z,0.62
2023-02-15T07:39:26.647Z,0.77
2023-02-15T07:41:56.201Z,0.86
2023-02-15T07:44:25.617Z,0.97
2023-02-15T07:46:55.215Z,1.12
2023-02-15T07:49:24.925Z,1.29
2023-02-15T07:51:55.968Z,1.44
2023-02-15T07:54:25.612Z,1.61
2023-02-15T07:56:55.321Z,1.82
2023-02-15T07:59:25.354Z,1.97
2023-02-15T08:01:57.635Z,2.14
2023-02-15T08:04:27.531Z,2.38
2023-02-15T08:06:58.649Z,2.64
2023-02-15T08:09:28.059Z,2.85
2023-02-15T08:11:57.659Z,3.01
2023-02-15T08:14:27.289Z,3.14
2023-02-15T08:16:58.722Z,3.24
2023-02-15T08:19:30.632Z,3.37
2023-02-15T08:22:04.473Z,3.58
2023-02-15T08:24:38.096Z,3.73
2023-02-15T08:27:09.411Z,3.89
2023-02-15T08:29:42.410Z,4.13
2023-02-15T08:32:15.132Z,4.31
2023-02-15T08:34:45.454Z,4.48
2023-02-15T08:37:16.474Z,4.58
2023-02-15T08:39:47.045Z,4.69
2023-02-15T08:42:16.616Z,4.69
2023-02-15T08:44:46.142Z,4.70
2023-02-15T08:47:15.655Z,4.83
2023-02-15T08:49:45.251Z,5.09
2023-02-15T08:52:16.092Z,5.34
2023-02-15T08:54:45.823Z,5.46
2023-02-15T08:57:15.410Z,5.57
2023-02-15T08:59:44.838Z,5.67
2023-02-15T09:02:14.331Z,5.78
2023-02-15T09:04:44.107Z,5.85
2023-02-15T09:07:15.053Z,5.95
2023-02-15T09:09:44.632Z,6.05
2023-02-15T09:12:14.175Z,6.23
2023-02-15T09:14:43.734Z,6.31
2023-02-15T09:17:15.652Z,6.16
2023-02-15T09:19:45.650Z,6.31
2023-02-15T09:22:16.669Z,6.50
2023-02-15T09:24:46.533Z,6.62
2023-02-15T09:27:16.054Z,6.64
2023-02-15T09:29:45.702Z,6.74
2023-02-15T09:32:18.669Z,6.69
2023-02-15T09:34:48.250Z,6.67
2023-02-15T09:37:19.219Z,6.78
2023-02-15T09:39:49.276Z,6.65
2023-02-15T09:43:19.259Z,6.74
2023-02-15T09:46:11.897Z,6.90
2023-02-15T09:52:25.048Z,7.08
2023-02-15T09:55:12.710Z,6.88
2023-02-15T09:57:57.429Z,6.90
2023-02-15T10:00:40.271Z,6.87
2023-02-15T10:03:53.952Z,6.71
2023-02-15T10:06:34.857Z,6.75
2023-02-15T10:09:39.071Z,6.60
2023-02-15T10:12:44.154Z,6.72
2023-02-15T10:15:32.727Z,6.85
2023-02-15T10:18:32.976Z,6.94
2023-02-15T10:21:13.451Z,6.88
2023-02-15T10:24:04.533Z,6.91
2023-02-15T10:26:46.884Z,6.63
2023-02-15T10:29:30.618Z,6.67
2023-02-15T10:32:12.874Z,6.71
2023-02-15T10:34:49.089Z,6.72
2023-02-15T10:37:54.798Z,6.70
2023-02-15T10:40:38.437Z,6.68
2023-02-15T10:43:28.251Z,6.52
2023-02-15T10:46:11.595Z,6.25
2023-02-15T10:49:24.510Z,5.99
2023-02-15T10:52:13.431Z,5.88
2023-02-15T10:54:54.022Z,5.62
2023-02-15T10:57:32.375Z,5.57
2023-02-15T11:00:12.595Z,5.49
2023-02-15T11:03:23.891Z,5.39
2023-02-15T11:06:06.014Z,5.29
2023-02-15T11:08:42.156Z,5.36
2023-02-15T11:11:17.730Z,5.46
2023-02-15T11:13:52.953Z,5.38
2023-02-15T11:16:29.730Z,5.25
2023-02-15T11:19:04.647Z,5.10
2023-02-15T11:21:40.268Z,4.96
2023-02-15T11:24:15.467Z,4.80
2023-02-15T11:26:48.823Z,4.70
2023-02-15T11:29:26.116Z,4.75
2023-02-15T11:32:00.426Z,4.90
2023-02-15T11:34:36.532Z,5.09
2023-02-15T11:37:16.785Z,5.17
2023-02-15T11:39:52.750Z,5.24
2023-02-15T11:42:26.316Z,5.34
2023-02-15T11:45:03.150Z,5.28
2023-02-15T11:47:34.207Z,5.43
2023-02-15T11:50:04.331Z,5.58
2023-02-15T11:52:34.704Z,5.77
2023-02-15T11:55:04.508Z,5.95
2023-02-15T11:57:41.625Z,5.88
2023-02-15T12:00:19.769Z,5.94
2023-02-15T12:02:56.212Z,6.05
2023-02-15T12:05:28.587Z,6.16
2023-02-15T12:08:05.532Z,6.21
2023-02-15T12:10:42.860Z,6.16
2023-02-15T12:13:15.794Z,6.18
2023-02-15T12:15:50.027Z,6.22
2023-02-15T12:18:36.240Z,6.23
2023-02-15T12:21:10.938Z,6.20
2023-02-15T12:23:50.334Z,6.15
2023-02-15T12:26:28.062Z,6.10
2023-02-15T12:29:02.750Z,6.01
2023-02-15T12:31:41.989Z,5.90
2023-02-15T12:34:26.409Z,5.85
2023-02-15T12:36:59.185Z,5.82
2023-02-15T12:39:29.667Z,5.81
2023-02-15T12:42:18.418Z,5.74
2023-02-15T12:45:03.079Z,5.75
2023-02-15T12:47:33.943Z,5.78
2023-02-15T12:51:47.368Z,5.84
2023-02-15T12:54:33.909Z,5.88
2023-02-15T12:57:24.348Z,5.91
2023-02-15T12:59:57.477Z,5.92
2023-02-15T13:02:38.148Z,5.96
2023-02-15T13:05:21.902Z,5.99
2023-02-15T13:07:57.274Z,5.94
2023-02-15T13:10:30.909Z,5.90
2023-02-15T13:13:02.349Z,5.85
2023-02-15T13:15:38.596Z,5.70
2023-02-15T13:18:14.877Z,5.59
2023-02-15T13:20:47.394Z,5.66
2023-02-15T13:23:29.908Z,5.73
2023-02-15T13:26:02.472Z,5.67
2023-02-15T13:28:43.773Z,5.59
2023-02-15T13:31:18.651Z,5.42
2023-02-15T13:33:52.277Z,5.27
2023-02-15T13:36:32.616Z,5.24
2023-02-15T13:39:16.516Z,5.20
2023-02-15T13:42:01.933Z,5.09
2023-02-15T13:45:04.836Z,4.95
2023-02-15T13:47:45.415Z,4.87
2023-02-15T13:50:34.253Z,4.85
2023-02-15T13:53:30.437Z,4.84
2023-02-15T13:56:08.552Z,4.74
2023-02-15T13:59:11.304Z,4.64
2023-02-15T14:01:48.515Z,4.59
2023-02-15T14:04:56.107Z,4.56
2023-02-15T14:07:51.155Z,4.44
2023-02-15T14:10:38.720Z,4.40
2023-02-15T14:13:58.551Z,4.37
2023-02-15T14:16:39.172Z,4.39
2023-02-15T14:19:21.650Z,4.41
2023-02-15T14:21:58.568Z,4.33
2023-02-15T14:24:37.532Z,4.25
2023-02-15T14:27:24.940Z,4.13
2023-02-15T14:30:00.250Z,4.05
2023-02-15T14:32:37.600Z,4.02
2023-02-15T14:35:14.783Z,4.03
2023-02-15T14:37:53.424Z,3.93
2023-02-15T14:41:04.160Z,3.85
2023-02-15T14:43:53.874Z,3.75
2023-02-15T14:46:34.744Z,3.65
2023-02-15T14:49:13.651Z,3.70
2023-02-15T14:52:08.328Z,3.73
2023-02-15T14:55:00.818Z,3.66
2023-02-15T14:57:37.302Z,3.59
2023-02-15T15:00:41.376Z,3.53
2023-02-15T15:03:27.323Z,3.41
2023-02-15T15:06:01.735Z,3.34
2023-02-15T15:08:39.960Z,3.30
2023-02-15T15:11:47.847Z,3.18
2023-02-15T15:14:46.995Z,3.13
2023-02-15T15:18:03.962Z,3.03
2023-02-15T15:20:51.885Z,2.89
2023-02-15T15:23:45.299Z,2.80
2023-02-15T15:26:38.106Z,2.71
2023-02-15T15:29:09.875Z,2.62
2023-02-15T15:31:49.954Z,2.54
2023-02-15T15:34:44.287Z,2.35
2023-02-15T15:37:57.029Z,2.20
2023-02-15T15:41:11.506Z,2.01
2023-02-15T15:44:55.331Z,1.91
2023-02-15T15:47:43.522Z,1.82
2023-02-15T15:51:37.953Z,1.65
2023-02-15T15:54:07.599Z,1.53
2023-02-15T15:56:39.374Z,1.46
2023-02-15T15:59:15.827Z,1.36
2023-02-15T16:01:48.052Z,1.23
2023-02-15T16:04:28.335Z,1.08
2023-02-15T16:07:00.265Z,0.92
2023-02-15T16:09:30.908Z,0.83
2023-02-15T16:12:03.256Z,0.75
2023-02-15T16:14:37.433Z,0.65
2023-02-15T16:17:09.840Z,0.50
2023-02-15T16:19:43.212Z,0.40
2023-02-15T16:22:18.008Z,0.25
2023-02-15T16:25:11.880Z,0.12
2023-02-15T16:27:43.307Z,0.01
2023-02-15T16:30:30.643Z,-0.12
2023-02-15T16:33:09.466Z,-0.18
2023-02-15T16:35:42.136Z,-0.23
2023-02-15T16:38:14.627Z,-0.35
2023-02-15T16:40:57.204Z,-0.43
2023-02-15T16:43:30.978Z,-0.50
2023-02-15T16:46:07.908Z,-0.61
2023-02-15T16:48:45.715Z,-0.68
2023-02-15T16:51:25.744Z,-0.73
2023-02-15T16:54:00.225Z,-0.81
2023-02-15T16:56:33.232Z,-0.89
2023-02-15T16:59:04.534Z,-0.88
2023-02-15T17:01:36.348Z,-0.91
2023-02-15T17:04:31.345Z,-0.96
2023-02-15T17:07:18.930Z,-1.07
2023-02-15T17:09:58.254Z,-1.21
2023-02-15T17:12:51.902Z,-1.37
2023-02-15T17:15:34.650Z,-1.37
2023-02-15T17:18:09.066Z,-1.40
2023-02-15T17:20:42.899Z,-1.47
2023-02-15T17:23:29.026Z,-1.43
2023-02-15T17:26:01.339Z,-1.42
2023-02-15T17:28:34.039Z,-1.40
2023-02-15T17:31:10.746Z,-1.52
2023-02-15T17:33:41.734Z,-1.55
2023-02-15T17:36:17.331Z,-1.57
2023-02-15T17:39:07.753Z,-1.59
2023-02-15T17:41:39.800Z,-1.66
2023-02-15T17:44:15.095Z,-1.73
2023-02-15T17:46:45.527Z,-1.80
2023-02-15T17:49:24.754Z,-1.85
2023-02-15T17:51:54.515Z,-1.88
2023-02-15T17:54:41.232Z,-1.92
2023-02-15T17:57:16.946Z,-1.99
2023-02-15T18:00:03.930Z,-2.07
2023-02-15T18:02:55.480Z,-2.13
2023-02-15T18:05:42.655Z,-2.15
2023-02-15T18:08:32.892Z,-2.18
2023-02-15T18:11:21.012Z,-2.19
2023-02-15T18:13:52.034Z,-2.17
2023-02-15T18:16:26.883Z,-2.19
2023-02-15T18:18:56.714Z,-2.15
2023-02-15T18:21:26.901Z,-2.19
2023-02-15T18:23:56.535Z,-2.25
2023-02-15T18:26:28.598Z,-2.29
2023-02-15T18:28:59.544Z,-2.37
2023-02-15T18:31:29.117Z,-2.41
2023-02-15T18:34:03.308Z,-2.47
2023-02-15T18:36:45.410Z,-2.48
2023-02-15T18:39:34.858Z,-2.45
2023-02-15T18:42:05.788Z,-2.45
2023-02-15T18:44:36.621Z,-2.46
2023-02-15T18:47:06.174Z,-2.55
2023-02-15T18:51:40.422Z,-2.67
2023-02-15T18:54:20.474Z,-2.70
2023-02-15T18:56:56.823Z,-2.76
2023-02-15T18:59:30.669Z,-2.75
2023-02-15T19:02:01.482Z,-2.71
2023-02-15T19:04:32.586Z,-2.70
2023-02-15T19:07:03.489Z,-2.72
2023-02-15T19:09:32.997Z,-2.74
2023-02-15T19:12:02.376Z,-2.72
2023-02-15T19:14:34.612Z,-2.74
2023-02-15T19:17:04.529Z,-2.80
2023-02-15T19:19:34.318Z,-2.84
2023-02-15T19:22:05.273Z,-2.86
2023-02-15T19:24:42.195Z,-2.86
2023-02-15T19:27:23.084Z,-2.90
2023-02-15T19:29:53.272Z,-2.98
2023-02-15T19:32:23.124Z,-3.02
2023-02-15T19:34:52.716Z,-3.04
2023-02-15T19:37:32.284Z,-3.01
2023-02-15T19:40:02.965Z,-3.04
2023-02-15T19:42:33.400Z,-3.11
2023-02-15T19:45:02.951Z,-3.11
2023-02-15T19:47:32.430Z,-3.14
2023-02-15T19:50:03.795Z,-3.17
2023-02-15T19:52:34.891Z,-3.25
2023-02-15T19:55:04.371Z,-3.30
2023-02-15T19:57:34.024Z,-3.30
2023-02-15T20:00:19.847Z,-3.33
2023-02-15T20:02:51.511Z,-3.36
2023-02-15T20:05:21.939Z,-3.39
2023-02-15T20:07:55.084Z,-3.38
2023-02-15T20:10:26.740Z,-3.39
2023-02-15T20:12:56.366Z,-3.43
2023-02-15T20:15:28.521Z,-3.44
2023-02-15T20:17:59.915Z,-3.48
2023-02-15T20:20:35.431Z,-3.49
2023-02-15T20:23:07.028Z,-3.50
2023-02-15T20:25:36.723Z,-3.49
2023-02-15T20:28:06.554Z,-3.51
2023-02-15T20:30:36.205Z,-3.56
2023-02-15T20:33:05.841Z,-3.56
2023-02-15T20:35:35.575Z,-3.57
2023-02-15T20:38:07.111Z,-3.57
2023-02-15T20:40:58.519Z,-3.60
2023-02-15T20:43:28.135Z,-3.63
2023-02-15T20:45:57.793Z,-3.67
2023-02-15T20:48:27.467Z,-3.68
2023-02-15T20:50:58.757Z,-3.71
2023-02-15T20:53:31.252Z,-3.70
2023-02-15T20:56:00.877Z,-3.68
2023-02-15T20:58:32.576Z,-3.71
2023-02-15T21:01:02.788Z,-3.72
2023-02-15T21:03:33.923Z,-3.72
2023-02-15T21:06:03.432Z,-3.70
2023-02-15T21:08:35.901Z,-3.70
2023-02-15T21:11:05.838Z,-3.74
2023-02-15T21:13:37.172Z,-3.77
2023-02-15T21:16:07.429Z,-3.75
2023-02-15T21:18:40.933Z,-3.76
2023-02-15T21:21:23.913Z,-3.81
2023-02-15T21:23:55.532Z,-3.81
2023-02-15T21:26:25.762Z,-3.77
2023-02-15T21:28:55.484Z,-3.79
2023-02-15T21:31:28.947Z,-3.82
2023-02-15T21:33:58.612Z,-3.88
2023-02-15T21:36:28.338Z,-3.90
2023-02-15T21:38:59.572Z,-3.90
2023-02-15T21:41:46.989Z,-3.92
2023-02-15T21:44:39.718Z,-3.92
2023-02-15T21:47:27.984Z,-3.95
2023-02-15T21:51:55.095Z,-3.98
2023-02-15T21:54:24.692Z,-3.97
2023-02-15T21:56:54.282Z,-3.95
2023-02-15T21:59:23.851Z,-3.92
2023-02-15T22:01:54.164Z,-3.97
2023-02-15T22:04:28.284Z,-3.95
2023-02-15T22:06:59.560Z,-3.92
2023-02-15T22:09:30.190Z,-3.95
2023-02-15T22:12:01.231Z,-4.01
2023-02-15T22:14:41.156Z,-3.99
2023-02-15T22:17:18.780Z,-4.04
2023-02-15T22:19:50.470Z,-4.17
2023-02-15T22:22:21.579Z,-4.20
2023-02-15T22:24:50.883Z,-4.23
2023-02-15T22:27:23.346Z,-4.24
2023-02-15T22:29:53.267Z,-4.23
2023-02-15T22:32:25.638Z,-4.28
2023-02-15T22:34:56.605Z,-4.33
2023-02-15T22:37:27.446Z,-4.32
2023-02-15T22:39:56.949Z,-4.35
2023-02-15T22:42:29.930Z,-4.42
2023-02-15T22:45:01.010Z,-4.46
2023-02-15T22:47:32.812Z,-4.46
2023-02-15T22:50:03.187Z,-4.46
2023-02-15T22:52:34.164Z,-4.46
2023-02-15T22:55:03.588Z,-4.49
2023-02-15T22:57:35.168Z,-4.52
2023-02-15T23:00:06.476Z,-4.54
2023-02-15T23:02:36.158Z,-4.52
2023-02-15T23:05:05.878Z,-4.53
2023-02-15T23:07:37.834Z,-4.55
2023-02-15T23:10:21.647Z,-4.55
2023-02-15T23:13:10.469Z,-4.56
2023-02-15T23:15:41.906Z,-4.57
2023-02-15T23:18:21.186Z,-4.57
2023-02-15T23:20:54.827Z,-4.60
2023-02-15T23:23:32.284Z,-4.58
2023-02-15T23:26:04.358Z,-4.57
2023-02-15T23:28:38.898Z,-4.55
2023-02-15T23:31:19.258Z,-4.59
2023-02-15T23:33:49.608Z,-4.64
2023-02-15T23:36:34.015Z,-4.64
2023-02-15T23:39:34.399Z,-4.62
2023-02-15T23:42:10.226Z,-4.71
2023-02-15T23:44:40.849Z,-4.78
2023-02-15T23:47:42.688Z,-4.84
2023-02-15T23:50:19.752Z,-4.82
2023-02-15T23:52:49.438Z,-4.77
2023-02-15T23:55:21.346Z,-4.71
2023-02-15T23:57:54.646Z,-4.68
